sensor_id;sensor_type;location;lat;lon;timestamp;P1;durP1;ratioP1;P2;durP2;ratioP2
25905;SDS011;13713;52.552;13.204;2023-11-18T00:01:05;15.70;;;10.98;;
25905;SDS011;13713;52.552;13.204;2023-11-18T00:03:31;14.15;;;10.07;;
25905;SDS011;13713;52.552;13.204;2023-11-18T00:05:56;14.18;;;10.55;;
25905;SDS011;13713;52.552;13.204;2023-11-18T00:08:22;13.25;;;10.30;;
25905;SDS011;13713;52.552;13.204;2023-11-18T00:10:48;13.60;;;10.02;;
25905;SDS011;13713;52.552;13.204;2023-11-18T00:13:13;15.52;;;10.70;;
25905;SDS011;13713;52.552;13.204;2023-11-18T00:15:39;16.15;;;10.80;;
25905;SDS011;13713;52.552;13.204;2023-11-18T00:18:05;14.07;;;10.27;;
25905;SDS011;13713;52.552;13.204;2023-11-18T00:20:32;15.00;;;10.35;;
25905;SDS011;13713;52.552;13.204;2023-11-18T00:22:57;14.00;;;10.52;;
25905;SDS011;13713;52.552;13.204;2023-11-18T00:25:23;14.40;;;10.30;;
25905;SDS011;13713;52.552;13.204;2023-11-18T00:27:49;13.85;;;9.70;;
25905;SDS011;13713;52.552;13.204;2023-11-18T00:30:14;15.80;;;10.45;;
25905;SDS011;13713;52.552;13.204;2023-11-18T00:32:41;15.68;;;10.48;;
25905;SDS011;13713;52.552;13.204;2023-11-18T00:35:06;13.48;;;10.15;;
25905;SDS011;13713;52.552;13.204;2023-11-18T00:37:35;13.75;;;10.05;;
25905;SDS011;13713;52.552;13.204;2023-11-18T00:40:00;13.80;;;10.32;;
25905;SDS011;13713;52.552;13.204;2023-11-18T00:42:27;14.25;;;10.90;;
25905;SDS011;13713;52.552;13.204;2023-11-18T00:44:52;14.55;;;10.48;;
25905;SDS011;13713;52.552;13.204;2023-11-18T00:47:20;13.85;;;10.40;;
25905;SDS011;13713;52.552;13.204;2023-11-18T00:49:48;13.68;;;10.23;;
25905;SDS011;13713;52.552;13.204;2023-11-18T00:52:14;13.13;;;10.05;;
25905;SDS011;13713;52.552;13.204;2023-11-18T00:54:40;13.73;;;10.63;;
25905;SDS011;13713;52.552;13.204;2023-11-18T00:57:06;12.38;;;9.80;;
25905;SDS011;13713;52.552;13.204;2023-11-18T00:59:32;14.50;;;10.70;;
25905;SDS011;13713;52.552;13.204;2023-11-18T01:01:58;13.70;;;10.32;;
25905;SDS011;13713;52.552;13.204;2023-11-18T01:04:24;15.18;;;11.00;;
25905;SDS011;13713;52.552;13.204;2023-11-18T01:06:50;14.18;;;10.10;;
25905;SDS011;13713;52.552;13.204;2023-11-18T01:09:16;12.48;;;9.27;;
25905;SDS011;13713;52.552;13.204;2023-11-18T01:11:42;14.00;;;10.07;;
25905;SDS011;13713;52.552;13.204;2023-11-18T01:14:08;14.40;;;11.07;;
25905;SDS011;13713;52.552;13.204;2023-11-18T01:16:33;14.18;;;10.30;;
25905;SDS011;13713;52.552;13.204;2023-11-18T01:18:59;12.98;;;9.68;;
25905;SDS011;13713;52.552;13.204;2023-11-18T01:21:25;13.52;;;9.93;;
25905;SDS011;13713;52.552;13.204;2023-11-18T01:23:53;14.70;;;10.23;;
25905;SDS011;13713;52.552;13.204;2023-11-18T01:26:18;12.52;;;9.45;;
25905;SDS011;13713;52.552;13.204;2023-11-18T01:28:44;14.65;;;10.10;;
25905;SDS011;13713;52.552;13.204;2023-11-18T01:31:11;14.32;;;10.57;;
25905;SDS011;13713;52.552;13.204;2023-11-18T01:33:38;14.48;;;10.63;;
25905;SDS011;13713;52.552;13.204;2023-11-18T01:36:06;14.88;;;10.40;;
25905;SDS011;13713;52.552;13.204;2023-11-18T01:38:33;13.10;;;8.90;;
25905;SDS011;13713;52.552;13.204;2023-11-18T01:41:03;12.63;;;9.48;;
25905;SDS011;13713;52.552;13.204;2023-11-18T01:43:32;13.50;;;9.90;;
25905;SDS011;13713;52.552;13.204;2023-11-18T01:46:05;14.02;;;10.43;;
25905;SDS011;13713;52.552;13.204;2023-11-18T01:48:35;13.80;;;9.80;;
25905;SDS011;13713;52.552;13.204;2023-11-18T01:51:03;12.80;;;9.45;;
25905;SDS011;13713;52.552;13.204;2023-11-18T01:53:31;12.30;;;9.30;;
25905;SDS011;13713;52.552;13.204;2023-11-18T01:56:00;13.23;;;9.43;;
25905;SDS011;13713;52.552;13.204;2023-11-18T01:58:28;12.35;;;9.48;;
25905;SDS011;13713;52.552;13.204;2023-11-18T02:00:56;13.07;;;9.98;;
25905;SDS011;13713;52.552;13.204;2023-11-18T02:03:22;13.45;;;9.93;;
25905;SDS011;13713;52.552;13.204;2023-11-18T02:05:49;12.82;;;9.82;;
25905;SDS011;13713;52.552;13.204;2023-11-18T02:08:16;15.20;;;10.63;;
25905;SDS011;13713;52.552;13.204;2023-11-18T02:10:47;14.50;;;10.50;;
25905;SDS011;13713;52.552;13.204;2023-11-18T02:15:58;13.05;;;9.30;;
25905;SDS011;13713;52.552;13.204;2023-11-18T02:18:31;14.15;;;9.88;;
25905;SDS011;13713;52.552;13.204;2023-11-18T02:20:58;14.63;;;10.23;;
25905;SDS011;13713;52.552;13.204;2023-11-18T02:23:25;13.25;;;10.40;;
25905;SDS011;13713;52.552;13.204;2023-11-18T02:25:52;13.57;;;9.80;;
25905;SDS011;13713;52.552;13.204;2023-11-18T02:28:19;13.40;;;9.63;;
25905;SDS011;13713;52.552;13.204;2023-11-18T02:30:45;13.45;;;10.15;;
25905;SDS011;13713;52.552;13.204;2023-11-18T02:33:16;13.55;;;9.77;;
25905;SDS011;13713;52.552;13.204;2023-11-18T02:38:23;13.02;;;9.25;;
25905;SDS011;13713;52.552;13.204;2023-11-18T02:40:57;14.05;;;9.82;;
25905;SDS011;13713;52.552;13.204;2023-11-18T02:43:27;12.05;;;9.13;;
25905;SDS011;13713;52.552;13.204;2023-11-18T02:45:54;13.35;;;10.18;;
25905;SDS011;13713;52.552;13.204;2023-11-18T02:48:21;13.77;;;9.13;;
25905;SDS011;13713;52.552;13.204;2023-11-18T02:50:47;13.23;;;9.65;;
25905;SDS011;13713;52.552;13.204;2023-11-18T02:53:13;13.05;;;9.68;;
25905;SDS011;13713;52.552;13.204;2023-11-18T02:55:38;13.90;;;9.52;;
25905;SDS011;13713;52.552;13.204;2023-11-18T02:58:06;13.38;;;9.27;;
25905;SDS011;13713;52.552;13.204;2023-11-18T03:00:33;13.40;;;9.70;;
25905;SDS011;13713;52.552;13.204;2023-11-18T03:02:59;13.05;;;9.60;;
25905;SDS011;13713;52.552;13.204;2023-11-18T03:05:25;13.63;;;9.73;;
25905;SDS011;13713;52.552;13.204;2023-11-18T03:07:52;13.63;;;9.80;;
25905;SDS011;13713;52.552;13.204;2023-11-18T03:10:20;12.82;;;9.48;;
25905;SDS011;13713;52.552;13.204;2023-11-18T03:12:50;13.88;;;9.75;;
25905;SDS011;13713;52.552;13.204;2023-11-18T03:15:20;13.95;;;9.90;;
25905;SDS011;13713;52.552;13.204;2023-11-18T03:17:47;14.05;;;10.05;;
25905;SDS011;13713;52.552;13.204;2023-11-18T03:20:21;13.25;;;9.73;;
25905;SDS011;13713;52.552;13.204;2023-11-18T03:22:48;12.60;;;8.98;;
25905;SDS011;13713;52.552;13.204;2023-11-18T03:25:15;13.55;;;9.98;;
25905;SDS011;13713;52.552;13.204;2023-11-18T03:27:42;14.20;;;9.90;;
25905;SDS011;13713;52.552;13.204;2023-11-18T03:30:09;12.38;;;9.75;;
25905;SDS011;13713;52.552;13.204;2023-11-18T03:32:36;13.02;;;9.63;;
25905;SDS011;13713;52.552;13.204;2023-11-18T03:35:03;14.45;;;10.00;;
25905;SDS011;13713;52.552;13.204;2023-11-18T03:37:39;13.00;;;9.83;;
25905;SDS011;13713;52.552;13.204;2023-11-18T03:40:07;14.05;;;9.82;;
25905;SDS011;13713;52.552;13.204;2023-11-18T03:42:37;12.82;;;9.30;;
25905;SDS011;13713;52.552;13.204;2023-11-18T03:45:05;13.18;;;9.40;;
25905;SDS011;13713;52.552;13.204;2023-11-18T03:47:31;12.82;;;9.00;;
25905;SDS011;13713;52.552;13.204;2023-11-18T03:49:57;12.60;;;9.38;;
25905;SDS011;13713;52.552;13.204;2023-11-18T03:52:23;14.20;;;9.98;;
25905;SDS011;13713;52.552;13.204;2023-11-18T03:54:49;14.13;;;9.75;;
25905;SDS011;13713;52.552;13.204;2023-11-18T03:57:15;15.30;;;10.48;;
25905;SDS011;13713;52.552;13.204;2023-11-18T03:59:41;13.32;;;9.70;;
25905;SDS011;13713;52.552;13.204;2023-11-18T04:02:07;14.55;;;10.27;;
25905;SDS011;13713;52.552;13.204;2023-11-18T04:04:34;13.93;;;9.65;;
25905;SDS011;13713;52.552;13.204;2023-11-18T04:07:00;14.25;;;9.93;;
25905;SDS011;13713;52.552;13.204;2023-11-18T04:09:28;13.38;;;9.52;;
25905;SDS011;13713;52.552;13.204;2023-11-18T04:11:54;12.60;;;9.30;;
25905;SDS011;13713;52.552;13.204;2023-11-18T04:14:20;15.27;;;9.88;;
25905;SDS011;13713;52.552;13.204;2023-11-18T04:16:46;13.52;;;9.77;;
25905;SDS011;13713;52.552;13.204;2023-11-18T04:19:13;14.02;;;9.82;;
25905;SDS011;13713;52.552;13.204;2023-11-18T04:21:38;12.98;;;9.45;;
25905;SDS011;13713;52.552;13.204;2023-11-18T04:24:04;13.98;;;9.93;;
25905;SDS011;13713;52.552;13.204;2023-11-18T04:26:31;13.73;;;9.35;;
25905;SDS011;13713;52.552;13.204;2023-11-18T04:28:57;13.18;;;9.77;;
25905;SDS011;13713;52.552;13.204;2023-11-18T04:31:23;14.60;;;10.30;;
25905;SDS011;13713;52.552;13.204;2023-11-18T04:33:49;13.32;;;9.35;;
25905;SDS011;13713;52.552;13.204;2023-11-18T04:36:15;12.80;;;9.60;;
25905;SDS011;13713;52.552;13.204;2023-11-18T04:38:42;13.52;;;9.30;;
25905;SDS011;13713;52.552;13.204;2023-11-18T04:41:10;13.93;;;10.15;;
25905;SDS011;13713;52.552;13.204;2023-11-18T04:43:37;13.23;;;9.65;;
25905;SDS011;13713;52.552;13.204;2023-11-18T04:46:06;14.13;;;9.40;;
25905;SDS011;13713;52.552;13.204;2023-11-18T04:48:32;16.08;;;11.02;;
25905;SDS011;13713;52.552;13.204;2023-11-18T04:50:58;14.05;;;9.75;;
25905;SDS011;13713;52.552;13.204;2023-11-18T04:53:23;14.63;;;10.48;;
25905;SDS011;13713;52.552;13.204;2023-11-18T04:55:50;16.65;;;10.23;;
25905;SDS011;13713;52.552;13.204;2023-11-18T04:58:16;14.63;;;9.77;;
25905;SDS011;13713;52.552;13.204;2023-11-18T05:00:42;14.88;;;10.30;;
25905;SDS011;13713;52.552;13.204;2023-11-18T05:03:08;13.77;;;9.50;;
25905;SDS011;13713;52.552;13.204;2023-11-18T05:05:38;12.27;;;8.98;;
25905;SDS011;13713;52.552;13.204;2023-11-18T05:08:04;12.45;;;9.13;;
25905;SDS011;13713;52.552;13.204;2023-11-18T05:10:32;15.05;;;10.50;;
25905;SDS011;13713;52.552;13.204;2023-11-18T05:12:58;15.05;;;10.32;;
25905;SDS011;13713;52.552;13.204;2023-11-18T05:15:25;14.48;;;10.13;;
25905;SDS011;13713;52.552;13.204;2023-11-18T05:17:51;14.52;;;9.90;;
25905;SDS011;13713;52.552;13.204;2023-11-18T05:20:17;14.93;;;10.65;;
25905;SDS011;13713;52.552;13.204;2023-11-18T05:22:43;13.98;;;9.40;;
25905;SDS011;13713;52.552;13.204;2023-11-18T05:25:09;13.30;;;9.98;;
25905;SDS011;13713;52.552;13.204;2023-11-18T05:27:35;13.95;;;9.50;;
25905;SDS011;13713;52.552;13.204;2023-11-18T05:30:01;14.98;;;9.93;;
25905;SDS011;13713;52.552;13.204;2023-11-18T05:32:27;14.25;;;9.93;;
25905;SDS011;13713;52.552;13.204;2023-11-18T05:34:54;13.52;;;9.55;;
25905;SDS011;13713;52.552;13.204;2023-11-18T05:37:21;12.93;;;9.73;;
25905;SDS011;13713;52.552;13.204;2023-11-18T05:39:47;13.10;;;9.25;;
25905;SDS011;13713;52.552;13.204;2023-11-18T05:42:18;15.18;;;10.32;;
25905;SDS011;13713;52.552;13.204;2023-11-18T05:44:44;13.98;;;9.80;;
25905;SDS011;13713;52.552;13.204;2023-11-18T05:47:10;14.23;;;10.07;;
25905;SDS011;13713;52.552;13.204;2023-11-18T05:49:38;14.38;;;9.88;;
25905;SDS011;13713;52.552;13.204;2023-11-18T05:52:04;14.93;;;10.15;;
25905;SDS011;13713;52.552;13.204;2023-11-18T05:54:30;13.50;;;9.30;;
25905;SDS011;13713;52.552;13.204;2023-11-18T05:56:55;15.57;;;10.10;;
25905;SDS011;13713;52.552;13.204;2023-11-18T05:59:24;13.18;;;9.48;;
25905;SDS011;13713;52.552;13.204;2023-11-18T06:01:52;15.00;;;9.70;;
25905;SDS011;13713;52.552;13.204;2023-11-18T06:04:18;14.77;;;9.98;;
25905;SDS011;13713;52.552;13.204;2023-11-18T06:06:43;13.90;;;9.27;;
25905;SDS011;13713;52.552;13.204;2023-11-18T06:09:09;14.45;;;9.77;;
25905;SDS011;13713;52.552;13.204;2023-11-18T06:11:43;12.80;;;9.23;;
25905;SDS011;13713;52.552;13.204;2023-11-18T06:14:09;13.80;;;9.85;;
25905;SDS011;13713;52.552;13.204;2023-11-18T06:16:38;13.38;;;9.38;;
25905;SDS011;13713;52.552;13.204;2023-11-18T06:19:06;14.45;;;10.23;;
25905;SDS011;13713;52.552;13.204;2023-11-18T06:21:33;14.30;;;9.85;;
25905;SDS011;13713;52.552;13.204;2023-11-18T06:23:59;14.65;;;9.73;;
25905;SDS011;13713;52.552;13.204;2023-11-18T06:26:25;16.05;;;10.18;;
25905;SDS011;13713;52.552;13.204;2023-11-18T06:28:52;14.00;;;9.80;;
25905;SDS011;13713;52.552;13.204;2023-11-18T06:31:22;13.77;;;9.32;;
25905;SDS011;13713;52.552;13.204;2023-11-18T06:33:51;14.77;;;10.25;;
25905;SDS011;13713;52.552;13.204;2023-11-18T06:36:17;13.93;;;9.88;;
25905;SDS011;13713;52.552;13.204;2023-11-18T06:38:48;15.43;;;10.18;;
25905;SDS011;13713;52.552;13.204;2023-11-18T06:41:15;13.75;;;10.00;;
25905;SDS011;13713;52.552;13.204;2023-11-18T06:43:43;14.32;;;9.95;;
25905;SDS011;13713;52.552;13.204;2023-11-18T06:46:19;14.68;;;9.73;;
25905;SDS011;13713;52.552;13.204;2023-11-18T06:48:49;15.93;;;9.70;;
25905;SDS011;13713;52.552;13.204;2023-11-18T06:51:19;13.50;;;9.57;;
25905;SDS011;13713;52.552;13.204;2023-11-18T06:53:52;14.35;;;10.02;;
25905;SDS011;13713;52.552;13.204;2023-11-18T06:56:21;17.35;;;10.50;;
25905;SDS011;13713;52.552;13.204;2023-11-18T06:58:47;12.88;;;9.38;;
25905;SDS011;13713;52.552;13.204;2023-11-18T07:01:13;13.45;;;9.27;;
25905;SDS011;13713;52.552;13.204;2023-11-18T07:03:42;14.23;;;9.88;;
25905;SDS011;13713;52.552;13.204;2023-11-18T07:06:09;14.45;;;9.80;;
25905;SDS011;13713;52.552;13.204;2023-11-18T07:08:37;13.48;;;9.40;;
25905;SDS011;13713;52.552;13.204;2023-11-18T07:11:04;15.18;;;10.13;;
25905;SDS011;13713;52.552;13.204;2023-11-18T07:13:31;14.18;;;10.10;;
25905;SDS011;13713;52.552;13.204;2023-11-18T07:16:02;15.25;;;9.93;;
25905;SDS011;13713;52.552;13.204;2023-11-18T07:18:29;15.18;;;10.25;;
25905;SDS011;13713;52.552;13.204;2023-11-18T07:21:01;13.95;;;9.55;;
25905;SDS011;13713;52.552;13.204;2023-11-18T07:25:55;14.60;;;9.75;;
25905;SDS011;13713;52.552;13.204;2023-11-18T07:28:21;15.68;;;10.73;;
25905;SDS011;13713;52.552;13.204;2023-11-18T07:30:47;15.50;;;11.15;;
25905;SDS011;13713;52.552;13.204;2023-11-18T07:33:16;15.52;;;9.90;;
25905;SDS011;13713;52.552;13.204;2023-11-18T07:35:44;15.07;;;10.20;;
25905;SDS011;13713;52.552;13.204;2023-11-18T07:38:11;15.98;;;10.48;;
25905;SDS011;13713;52.552;13.204;2023-11-18T07:40:38;17.63;;;9.70;;
25905;SDS011;13713;52.552;13.204;2023-11-18T07:43:10;13.80;;;9.85;;
25905;SDS011;13713;52.552;13.204;2023-11-18T07:45:39;14.25;;;9.60;;
25905;SDS011;13713;52.552;13.204;2023-11-18T07:48:05;14.65;;;9.50;;
25905;SDS011;13713;52.552;13.204;2023-11-18T07:50:33;13.77;;;9.57;;
25905;SDS011;13713;52.552;13.204;2023-11-18T07:52:59;16.40;;;10.32;;
25905;SDS011;13713;52.552;13.204;2023-11-18T07:55:25;16.98;;;10.57;;
25905;SDS011;13713;52.552;13.204;2023-11-18T07:57:51;15.27;;;10.55;;
25905;SDS011;13713;52.552;13.204;2023-11-18T08:00:17;15.95;;;9.75;;
25905;SDS011;13713;52.552;13.204;2023-11-18T08:02:43;14.40;;;9.85;;
25905;SDS011;13713;52.552;13.204;2023-11-18T08:05:09;14.50;;;9.57;;
25905;SDS011;13713;52.552;13.204;2023-11-18T08:07:44;15.73;;;10.15;;
25905;SDS011;13713;52.552;13.204;2023-11-18T08:10:10;16.90;;;10.80;;
25905;SDS011;13713;52.552;13.204;2023-11-18T08:12:38;15.13;;;9.45;;
25905;SDS011;13713;52.552;13.204;2023-11-18T08:15:05;15.48;;;10.35;;
25905;SDS011;13713;52.552;13.204;2023-11-18T08:17:34;15.65;;;10.30;;
25905;SDS011;13713;52.552;13.204;2023-11-18T08:20:00;15.48;;;10.52;;
25905;SDS011;13713;52.552;13.204;2023-11-18T08:22:32;14.73;;;10.55;;
25905;SDS011;13713;52.552;13.204;2023-11-18T08:24:57;15.20;;;10.25;;
25905;SDS011;13713;52.552;13.204;2023-11-18T08:27:24;15.57;;;10.23;;
25905;SDS011;13713;52.552;13.204;2023-11-18T08:29:50;14.88;;;10.05;;
25905;SDS011;13713;52.552;13.204;2023-11-18T08:32:15;16.23;;;10.43;;
25905;SDS011;13713;52.552;13.204;2023-11-18T08:34:41;14.98;;;9.70;;
25905;SDS011;13713;52.552;13.204;2023-11-18T08:37:06;14.85;;;9.98;;
25905;SDS011;13713;52.552;13.204;2023-11-18T08:39:32;15.82;;;10.52;;
25905;SDS011;13713;52.552;13.204;2023-11-18T08:41:58;16.17;;;10.48;;
25905;SDS011;13713;52.552;13.204;2023-11-18T08:44:24;18.67;;;10.63;;
25905;SDS011;13713;52.552;13.204;2023-11-18T08:46:52;15.57;;;10.27;;
25905;SDS011;13713;52.552;13.204;2023-11-18T08:49:19;15.95;;;10.93;;
25905;SDS011;13713;52.552;13.204;2023-11-18T08:51:49;15.68;;;10.80;;
25905;SDS011;13713;52.552;13.204;2023-11-18T08:54:24;16.08;;;10.20;;
25905;SDS011;13713;52.552;13.204;2023-11-18T08:57:02;15.15;;;9.98;;
25905;SDS011;13713;52.552;13.204;2023-11-18T08:59:29;16.25;;;10.98;;
25905;SDS011;13713;52.552;13.204;2023-11-18T09:01:55;16.75;;;10.65;;
25905;SDS011;13713;52.552;13.204;2023-11-18T09:04:27;17.75;;;11.15;;
25905;SDS011;13713;52.552;13.204;2023-11-18T09:06:53;18.77;;;11.13;;
25905;SDS011;13713;52.552;13.204;2023-11-18T09:09:22;15.63;;;10.52;;
25905;SDS011;13713;52.552;13.204;2023-11-18T09:11:52;17.00;;;10.38;;
25905;SDS011;13713;52.552;13.204;2023-11-18T09:14:19;15.45;;;9.60;;
25905;SDS011;13713;52.552;13.204;2023-11-18T09:16:45;16.33;;;10.50;;
25905;SDS011;13713;52.552;13.204;2023-11-18T09:19:11;15.25;;;9.93;;
25905;SDS011;13713;52.552;13.204;2023-11-18T09:21:37;17.70;;;11.63;;
25905;SDS011;13713;52.552;13.204;2023-11-18T09:24:03;17.17;;;11.15;;
25905;SDS011;13713;52.552;13.204;2023-11-18T09:26:30;16.27;;;10.50;;
25905;SDS011;13713;52.552;13.204;2023-11-18T09:28:56;14.85;;;10.15;;
25905;SDS011;13713;52.552;13.204;2023-11-18T09:31:26;15.50;;;10.10;;
25905;SDS011;13713;52.552;13.204;2023-11-18T09:33:52;15.75;;;10.77;;
25905;SDS011;13713;52.552;13.204;2023-11-18T09:36:18;17.55;;;11.32;;
25905;SDS011;13713;52.552;13.204;2023-11-18T09:38:45;15.80;;;10.40;;
25905;SDS011;13713;52.552;13.204;2023-11-18T09:41:18;17.95;;;10.88;;
25905;SDS011;13713;52.552;13.204;2023-11-18T09:43:49;16.45;;;10.57;;
25905;SDS011;13713;52.552;13.204;2023-11-18T09:46:25;17.02;;;10.60;;
25905;SDS011;13713;52.552;13.204;2023-11-18T09:51:50;18.23;;;11.27;;
25905;SDS011;13713;52.552;13.204;2023-11-18T09:57:19;17.27;;;11.70;;
25905;SDS011;13713;52.552;13.204;2023-11-18T10:00:23;16.25;;;10.13;;
25905;SDS011;13713;52.552;13.204;2023-11-18T10:02:51;17.15;;;11.30;;
25905;SDS011;13713;52.552;13.204;2023-11-18T10:05:20;16.55;;;10.68;;
25905;SDS011;13713;52.552;13.204;2023-11-18T10:07:51;16.77;;;10.60;;
25905;SDS011;13713;52.552;13.204;2023-11-18T10:10:18;16.48;;;10.27;;
25905;SDS011;13713;52.552;13.204;2023-11-18T10:12:46;17.60;;;10.85;;
25905;SDS011;13713;52.552;13.204;2023-11-18T10:15:23;18.15;;;11.75;;
25905;SDS011;13713;52.552;13.204;2023-11-18T10:17:49;17.63;;;11.52;;
25905;SDS011;13713;52.552;13.204;2023-11-18T10:20:46;16.48;;;11.00;;
25905;SDS011;13713;52.552;13.204;2023-11-18T10:23:12;16.00;;;10.70;;
25905;SDS011;13713;52.552;13.204;2023-11-18T10:25:48;18.63;;;11.32;;
25905;SDS011;13713;52.552;13.204;2023-11-18T10:31:02;16.98;;;11.25;;
25905;SDS011;13713;52.552;13.204;2023-11-18T10:33:34;17.02;;;10.50;;
25905;SDS011;13713;52.552;13.204;2023-11-18T10:36:03;17.05;;;11.52;;
25905;SDS011;13713;52.552;13.204;2023-11-18T10:38:30;17.35;;;11.50;;
25905;SDS011;13713;52.552;13.204;2023-11-18T10:40:58;18.60;;;11.05;;
25905;SDS011;13713;52.552;13.204;2023-11-18T10:43:27;16.92;;;11.35;;
25905;SDS011;13713;52.552;13.204;2023-11-18T10:48:43;17.52;;;10.43;;
25905;SDS011;13713;52.552;13.204;2023-11-18T10:51:19;18.17;;;11.43;;
25905;SDS011;13713;52.552;13.204;2023-11-18T10:53:46;15.75;;;10.13;;
25905;SDS011;13713;52.552;13.204;2023-11-18T10:56:24;19.52;;;11.05;;
25905;SDS011;13713;52.552;13.204;2023-11-18T11:01:31;16.42;;;10.30;;
25905;SDS011;13713;52.552;13.204;2023-11-18T11:04:07;19.75;;;11.27;;
25905;SDS011;13713;52.552;13.204;2023-11-18T11:06:44;17.70;;;11.02;;
25905;SDS011;13713;52.552;13.204;2023-11-18T11:09:21;17.25;;;10.35;;
25905;SDS011;13713;52.552;13.204;2023-11-18T11:12:02;16.27;;;10.60;;
25905;SDS011;13713;52.552;13.204;2023-11-18T11:14:42;14.75;;;10.07;;
25905;SDS011;13713;52.552;13.204;2023-11-18T11:17:14;18.67;;;11.38;;
25905;SDS011;13713;52.552;13.204;2023-11-18T11:19:51;16.63;;;10.30;;
25905;SDS011;13713;52.552;13.204;2023-11-18T11:22:41;17.23;;;11.15;;
25905;SDS011;13713;52.552;13.204;2023-11-18T11:25:41;18.42;;;10.88;;
25905;SDS011;13713;52.552;13.204;2023-11-18T11:28:16;19.05;;;10.98;;
25905;SDS011;13713;52.552;13.204;2023-11-18T11:30:46;17.08;;;11.20;;
25905;SDS011;13713;52.552;13.204;2023-11-18T11:36:12;16.42;;;10.45;;
25905;SDS011;13713;52.552;13.204;2023-11-18T11:38:52;17.85;;;11.10;;
25905;SDS011;13713;52.552;13.204;2023-11-18T11:41:21;16.80;;;10.65;;
25905;SDS011;13713;52.552;13.204;2023-11-18T11:43:51;17.92;;;11.27;;
25905;SDS011;13713;52.552;13.204;2023-11-18T11:49:02;17.73;;;10.65;;
25905;SDS011;13713;52.552;13.204;2023-11-18T11:54:40;18.13;;;10.75;;
25905;SDS011;13713;52.552;13.204;2023-11-18T11:57:10;15.90;;;10.80;;
25905;SDS011;13713;52.552;13.204;2023-11-18T12:02:17;18.50;;;10.75;;
25905;SDS011;13713;52.552;13.204;2023-11-18T12:04:46;19.83;;;11.48;;
25905;SDS011;13713;52.552;13.204;2023-11-18T12:07:17;19.40;;;12.02;;
25905;SDS011;13713;52.552;13.204;2023-11-18T12:09:55;18.23;;;10.93;;
25905;SDS011;13713;52.552;13.204;2023-11-18T12:12:22;17.90;;;11.50;;
25905;SDS011;13713;52.552;13.204;2023-11-18T12:14:56;17.33;;;11.40;;
25905;SDS011;13713;52.552;13.204;2023-11-18T12:17:31;17.98;;;10.93;;
25905;SDS011;13713;52.552;13.204;2023-11-18T12:23:22;19.05;;;11.35;;
25905;SDS011;13713;52.552;13.204;2023-11-18T12:25:53;17.90;;;11.20;;
25905;SDS011;13713;52.552;13.204;2023-11-18T12:28:20;18.50;;;11.40;;
25905;SDS011;13713;52.552;13.204;2023-11-18T12:30:55;18.08;;;10.35;;
25905;SDS011;13713;52.552;13.204;2023-11-18T12:33:21;19.08;;;11.88;;
25905;SDS011;13713;52.552;13.204;2023-11-18T12:41:20;20.15;;;11.15;;
25905;SDS011;13713;52.552;13.204;2023-11-18T12:47:03;17.95;;;10.60;;
25905;SDS011;13713;52.552;13.204;2023-11-18T12:49:49;20.10;;;11.80;;
25905;SDS011;13713;52.552;13.204;2023-11-18T12:52:20;18.42;;;11.35;;
25905;SDS011;13713;52.552;13.204;2023-11-18T12:54:49;19.60;;;11.77;;
25905;SDS011;13713;52.552;13.204;2023-11-18T12:57:26;18.02;;;11.07;;
25905;SDS011;13713;52.552;13.204;2023-11-18T12:59:56;19.42;;;11.80;;
25905;SDS011;13713;52.552;13.204;2023-11-18T13:02:22;20.58;;;11.90;;
25905;SDS011;13713;52.552;13.204;2023-11-18T13:04:51;22.17;;;12.32;;
25905;SDS011;13713;52.552;13.204;2023-11-18T13:07:19;18.55;;;11.55;;
25905;SDS011;13713;52.552;13.204;2023-11-18T13:09:46;20.02;;;11.93;;
25905;SDS011;13713;52.552;13.204;2023-11-18T13:12:13;18.95;;;10.95;;
25905;SDS011;13713;52.552;13.204;2023-11-18T13:14:44;20.77;;;11.75;;
25905;SDS011;13713;52.552;13.204;2023-11-18T13:17:11;22.05;;;12.15;;
25905;SDS011;13713;52.552;13.204;2023-11-18T13:19:41;22.27;;;12.35;;
25905;SDS011;13713;52.552;13.204;2023-11-18T13:22:09;20.48;;;11.98;;
25905;SDS011;13713;52.552;13.204;2023-11-18T13:24:40;20.50;;;11.93;;
25905;SDS011;13713;52.552;13.204;2023-11-18T13:27:10;19.30;;;11.73;;
25905;SDS011;13713;52.552;13.204;2023-11-18T13:29:39;19.60;;;12.05;;
25905;SDS011;13713;52.552;13.204;2023-11-18T13:32:10;19.13;;;11.95;;
25905;SDS011;13713;52.552;13.204;2023-11-18T13:34:37;19.88;;;11.32;;
25905;SDS011;13713;52.552;13.204;2023-11-18T13:37:07;19.85;;;11.05;;
25905;SDS011;13713;52.552;13.204;2023-11-18T13:39:36;18.67;;;10.80;;
25905;SDS011;13713;52.552;13.204;2023-11-18T13:42:22;19.17;;;11.25;;
25905;SDS011;13713;52.552;13.204;2023-11-18T13:44:51;20.30;;;11.52;;
25905;SDS011;13713;52.552;13.204;2023-11-18T13:47:18;21.33;;;12.07;;
25905;SDS011;13713;52.552;13.204;2023-11-18T13:49:44;18.60;;;11.30;;
25905;SDS011;13713;52.552;13.204;2023-11-18T13:52:12;17.95;;;10.65;;
25905;SDS011;13713;52.552;13.204;2023-11-18T13:54:41;20.67;;;11.95;;
25905;SDS011;13713;52.552;13.204;2023-11-18T13:57:10;19.27;;;10.82;;
25905;SDS011;13713;52.552;13.204;2023-11-18T13:59:36;19.20;;;11.77;;
25905;SDS011;13713;52.552;13.204;2023-11-18T14:02:03;20.83;;;12.02;;
25905;SDS011;13713;52.552;13.204;2023-11-18T14:04:30;20.27;;;12.80;;
25905;SDS011;13713;52.552;13.204;2023-11-18T14:06:59;21.02;;;13.68;;
25905;SDS011;13713;52.552;13.204;2023-11-18T14:09:29;20.17;;;12.05;;
25905;SDS011;13713;52.552;13.204;2023-11-18T14:11:57;21.58;;;12.15;;
25905;SDS011;13713;52.552;13.204;2023-11-18T14:14:23;22.92;;;13.10;;
25905;SDS011;13713;52.552;13.204;2023-11-18T14:16:50;22.10;;;13.65;;
25905;SDS011;13713;52.552;13.204;2023-11-18T14:19:18;23.63;;;13.98;;
25905;SDS011;13713;52.552;13.204;2023-11-18T14:21:44;23.85;;;14.00;;
25905;SDS011;13713;52.552;13.204;2023-11-18T14:24:10;21.88;;;12.80;;
25905;SDS011;13713;52.552;13.204;2023-11-18T14:26:39;25.33;;;12.70;;
25905;SDS011;13713;52.552;13.204;2023-11-18T14:29:06;20.95;;;12.68;;
25905;SDS011;13713;52.552;13.204;2023-11-18T14:31:33;24.00;;;13.68;;
25905;SDS011;13713;52.552;13.204;2023-11-18T14:34:02;21.58;;;13.13;;
25905;SDS011;13713;52.552;13.204;2023-11-18T14:36:29;24.83;;;14.68;;
25905;SDS011;13713;52.552;13.204;2023-11-18T14:38:55;23.02;;;13.65;;
25905;SDS011;13713;52.552;13.204;2023-11-18T14:41:21;19.95;;;12.68;;
25905;SDS011;13713;52.552;13.204;2023-11-18T14:43:51;23.27;;;13.55;;
25905;SDS011;13713;52.552;13.204;2023-11-18T14:46:17;21.02;;;13.02;;
25905;SDS011;13713;52.552;13.204;2023-11-18T14:48:44;21.13;;;12.43;;
25905;SDS011;13713;52.552;13.204;2023-11-18T14:51:10;22.00;;;13.25;;
25905;SDS011;13713;52.552;13.204;2023-11-18T14:53:36;22.20;;;13.10;;
25905;SDS011;13713;52.552;13.204;2023-11-18T14:56:03;21.17;;;12.73;;
25905;SDS011;13713;52.552;13.204;2023-11-18T14:58:30;21.05;;;12.43;;
25905;SDS011;13713;52.552;13.204;2023-11-18T15:00:57;20.23;;;12.70;;
25905;SDS011;13713;52.552;13.204;2023-11-18T15:03:24;22.65;;;13.68;;
25905;SDS011;13713;52.552;13.204;2023-11-18T15:05:50;22.50;;;13.48;;